createdAt,value
2019-04-25T00:01:22.379Z,99808.58
2019-04-25T00:06:25.954Z,99833.43
2019-04-25T00:11:31.160Z,99830.67
2019-04-25T00:16:36.124Z,99837.80
2019-04-25T00:21:42.509Z,99813.55
2019-04-25T00:26:48.537Z,99804.91
2019-04-25T00:31:53.276Z,99799.09
2019-04-25T00:36:57.356Z,99825.16
2019-04-25T00:42:02.346Z,99852.17
2019-04-25T00:47:06.081Z,99853.77
2019-04-25T00:52:09.496Z,99851.91
2019-04-25T00:57:13.278Z,99867.89
2019-04-25T01:02:34.431Z,99865.00
2019-04-25T01:07:38.030Z,99854.73
2019-04-25T01:12:41.742Z,99837.72
2019-04-25T01:17:45.443Z,99816.94
2019-04-25T01:22:49.317Z,99822.20
2019-04-25T01:27:53.929Z,99823.30
2019-04-25T01:32:58.162Z,99810.23
2019-04-25T01:38:15.092Z,99794.01
2019-04-25T01:43:20.180Z,99815.06
2019-04-25T01:48:23.653Z,99807.82
2019-04-25T01:53:27.086Z,99812.28
2019-04-25T01:58:30.583Z,99811.85
2019-04-25T02:03:35.541Z,99802.86
2019-04-25T02:08:39.830Z,99819.00
2019-04-25T02:13:43.818Z,99834.27
2019-04-25T02:18:47.506Z,99858.67
2019-04-25T02:23:51.616Z,99874.83
2019-04-25T02:28:56.470Z,99897.81
2019-04-25T02:34:03.453Z,99900.22
2019-04-25T02:39:10.741Z,99910.22
2019-04-25T02:44:14.635Z,99915.20
2019-04-25T02:49:29.940Z,99909.42
2019-04-25T02:54:24.902Z,99908.49
2019-04-25T02:59:28.348Z,99904.06
2019-04-25T03:04:33.816Z,99897.31
2019-04-25T03:09:37.279Z,99881.20
2019-04-25T03:14:41.087Z,99877.88
2019-04-25T03:25:02.022Z,99872.98
2019-04-25T03:30:11.786Z,99861.74
2019-04-25T03:35:14.486Z,99869.84
2019-04-25T03:40:18.056Z,99864.84
2019-04-25T03:45:21.539Z,99868.08
2019-04-25T03:50:24.952Z,99875.19
2019-04-25T03:55:28.364Z,99879.61
2019-04-25T04:00:31.844Z,99887.22
2019-04-25T04:05:35.258Z,99903.13
2019-04-25T04:10:38.696Z,99902.97
2019-04-25T04:15:43.371Z,99910.22
2019-04-25T04:20:54.492Z,99913.01
2019-04-25T04:25:58.079Z,99910.02
2019-04-25T04:31:01.527Z,99921.91
2019-04-25T04:36:05.022Z,99931.20
2019-04-25T04:41:08.404Z,99936.73
2019-04-25T04:46:12.098Z,99936.30
2019-04-25T04:51:19.395Z,99937.69
2019-04-25T04:56:23.889Z,99944.17
2019-04-25T05:01:29.599Z,99940.40
2019-04-25T05:06:34.663Z,99947.03
2019-04-25T05:11:38.069Z,99946.63
2019-04-25T05:16:43.107Z,99948.17
2019-04-25T05:21:46.664Z,99954.02
2019-04-25T05:26:50.070Z,99956.36
2019-04-25T05:31:54.234Z,99955.11
2019-04-25T05:36:57.810Z,99938.59
2019-04-25T05:42:19.062Z,99950.69
2019-04-25T05:47:25.654Z,99949.56
2019-04-25T05:52:27.651Z,99952.35
2019-04-25T05:57:44.737Z,99964.31
2019-04-25T06:02:36.202Z,99961.88
2019-04-25T06:07:39.611Z,99972.39
2019-04-25T06:12:44.680Z,99983.76
2019-04-25T06:17:49.753Z,99981.76
2019-04-25T06:23:11.111Z,99990.68
2019-04-25T06:28:16.289Z,99986.63
2019-04-25T06:33:21.157Z,99990.66
2019-04-25T06:38:27.292Z,99988.19
2019-04-25T06:43:30.141Z,99991.63
2019-04-25T06:48:35.286Z,99984.06
2019-04-25T06:53:38.725Z,99987.16
2019-04-25T06:58:43.874Z,99993.33
2019-04-25T07:03:47.481Z,100003.97
2019-04-25T07:08:50.897Z,100012.72
2019-04-25T07:13:54.332Z,100000.61
2019-04-25T07:18:57.750Z,99999.09
2019-04-25T07:24:01.172Z,99998.75
2019-04-25T07:29:09.257Z,100010.45
2019-04-25T07:34:14.310Z,100002.00
2019-04-25T07:39:17.775Z,99994.50
2019-04-25T07:44:33.766Z,99998.45
2019-04-25T07:49:26.860Z,99993.11
2019-04-25T07:54:30.688Z,100010.02
2019-04-25T07:59:35.334Z,100034.06
2019-04-25T08:04:39.259Z,100038.70
2019-04-25T08:09:44.148Z,100034.24
2019-04-25T08:14:49.487Z,100032.59
2019-04-25T08:19:54.336Z,100031.70
2019-04-25T08:24:57.811Z,100036.16
2019-04-25T08:30:01.337Z,100039.97
2019-04-25T08:35:06.046Z,100036.32
2019-04-25T08:40:09.890Z,100047.02
2019-04-25T08:45:13.848Z,100052.12
2019-04-25T08:50:28.696Z,100051.84
2019-04-25T08:55:44.351Z,100059.75
2019-04-25T09:01:04.673Z,100064.34
2019-04-25T09:06:09.142Z,100068.27
2019-04-25T09:11:13.436Z,100061.98
2019-04-25T09:16:16.875Z,100071.87
2019-04-25T09:21:20.303Z,100071.63
2019-04-25T09:26:24.170Z,100054.79
2019-04-25T09:31:27.658Z,100060.59
2019-04-25T09:36:31.130Z,100057.39
2019-04-25T09:41:35.963Z,100070.89
2019-04-25T09:46:39.583Z,100081.84
2019-04-25T09:51:45.760Z,100080.47
2019-04-25T09:56:50.873Z,100074.65
2019-04-25T10:01:54.290Z,100068.32
2019-04-25T10:06:57.709Z,100071.13
2019-04-25T10:12:01.113Z,100061.15
2019-04-25T10:17:04.767Z,100050.67
2019-04-25T10:22:08.550Z,100063.09
2019-04-25T10:27:12.032Z,100065.48
2019-04-25T10:32:16.712Z,100069.27
2019-04-25T10:37:20.193Z,100056.85
2019-04-25T10:42:23.977Z,100062.17
2019-04-25T10:47:28.179Z,100059.62
2019-04-25T10:52:31.576Z,100048.94
2019-04-25T10:57:35.005Z,100053.91
2019-04-25T11:02:38.543Z,100040.64
2019-04-25T11:07:41.997Z,100036.87
2019-04-25T11:12:47.218Z,100038.98
2019-04-25T11:17:50.913Z,100034.61
2019-04-25T11:22:54.397Z,100031.02
2019-04-25T11:27:57.901Z,100017.59
2019-04-25T11:33:01.438Z,100015.70
2019-04-25T11:38:09.326Z,100010.73
2019-04-25T11:43:14.158Z,100013.75
2019-04-25T11:48:17.665Z,100009.06
2019-04-25T11:53:21.082Z,100004.77
2019-04-25T11:58:24.723Z,99982.95
2019-04-25T12:03:28.580Z,99975.61
2019-04-25T12:08:33.488Z,99974.02
2019-04-25T12:13:36.997Z,99970.69
2019-04-25T12:18:40.416Z,99961.28
2019-04-25T12:23:46.377Z,99952.55
2019-04-25T12:28:49.297Z,99946.14
2019-04-25T12:33:54.795Z,99944.09
2019-04-25T12:38:58.784Z,99955.80
2019-04-25T12:44:08.836Z,99959.72
2019-04-25T12:49:13.106Z,99952.42
2019-04-25T12:54:17.140Z,99947.83
2019-04-25T12:59:20.533Z,99957.54
2019-04-25T13:04:23.960Z,99955.31
2019-04-25T13:09:27.376Z,99956.32
2019-04-25T13:14:30.790Z,99948.20
2019-04-25T13:19:34.541Z,99937.95
2019-04-25T13:24:38.829Z,99926.50
2019-04-25T13:35:01.001Z,99911.47
2019-04-25T13:40:05.441Z,99899.26
2019-04-25T13:45:08.979Z,99907.47
2019-04-25T13:50:14.559Z,99906.84
2019-04-25T13:55:18.075Z,99889.94
2019-04-25T14:00:24.801Z,99885.50
2019-04-25T14:05:30.314Z,99880.27
2019-04-25T14:10:34.343Z,99876.04
2019-04-25T14:15:40.317Z,99875.44
2019-04-25T14:20:45.357Z,99874.45
2019-04-25T14:25:48.861Z,99860.30
2019-04-25T14:30:52.355Z,99856.30
2019-04-25T14:35:55.803Z,99854.52
2019-04-25T14:41:00.273Z,99850.42
2019-04-25T14:46:04.044Z,99846.41
2019-04-25T14:51:07.511Z,99843.99
2019-04-25T14:56:28.557Z,99845.78
2019-04-25T15:01:44.028Z,99838.64
2019-04-25T15:06:37.189Z,99838.02
2019-04-25T15:11:40.597Z,99836.56
2019-04-25T15:16:44.074Z,99835.81
2019-04-25T15:21:47.484Z,99828.16
2019-04-25T15:26:50.909Z,99821.70
2019-04-25T15:31:56.123Z,99814.80
2019-04-25T15:37:03.851Z,99806.25
2019-04-25T15:42:26.205Z,99800.91
2019-04-25T15:47:31.891Z,99793.86
2019-04-25T15:52:36.003Z,99788.97
2019-04-25T15:57:39.559Z,99785.52
2019-04-25T16:02:43.724Z,99780.00
2019-04-25T16:07:47.242Z,99765.11
2019-04-25T16:12:50.750Z,99765.41
2019-04-25T16:17:54.223Z,99763.13
2019-04-25T16:22:57.639Z,99756.59
2019-04-25T16:28:01.052Z,99763.64
2019-04-25T16:33:05.097Z,99763.81
2019-04-25T16:38:09.070Z,99759.61
2019-04-25T16:43:14.102Z,99750.22
2019-04-25T16:48:18.208Z,99748.92
2019-04-25T16:53:21.628Z,99741.09
2019-04-25T16:58:25.052Z,99743.77
2019-04-25T17:03:30.346Z,99737.09
2019-04-25T17:08:35.563Z,99731.97
2019-04-25T17:13:40.594Z,99728.00
2019-04-25T17:18:45.640Z,99731.55
2019-04-25T17:23:49.238Z,99736.55
2019-04-25T17:28:54.212Z,99731.91
2019-04-25T17:33:59.387Z,99738.92
2019-04-25T17:39:20.643Z,99733.89
2019-04-25T17:44:24.056Z,99726.34
2019-04-25T17:49:27.516Z,99729.58
2019-04-25T17:54:32.773Z,99732.67
2019-04-25T17:59:36.891Z,99738.55
2019-04-25T18:04:40.368Z,99734.31
2019-04-25T18:09:43.840Z,99730.95
2019-04-25T18:14:47.330Z,99733.53
2019-04-25T18:19:52.354Z,99736.78
2019-04-25T18:25:03.208Z,99734.73
2019-04-25T18:30:08.339Z,99729.03
2019-04-25T18:35:13.447Z,99735.52
2019-04-25T18:40:24.437Z,99740.73
2019-04-25T18:45:33.251Z,99735.83
2019-04-25T18:50:37.354Z,99739.55
2019-04-25T18:56:01.584Z,99746.13
2019-04-25T19:01:22.984Z,99743.48
2019-04-25T19:06:27.682Z,99748.71
2019-04-25T19:11:31.099Z,99753.98
2019-04-25T19:16:34.510Z,99764.17
2019-04-25T19:21:38.052Z,99764.17
2019-04-25T19:26:43.191Z,99771.36
2019-04-25T19:31:46.667Z,99825.95
2019-04-25T19:36:51.142Z,99860.91
2019-04-25T19:42:11.383Z,99874.25
2019-04-25T19:47:14.834Z,99885.69
2019-04-25T19:52:18.222Z,99904.91
2019-04-25T19:57:21.702Z,99926.65
2019-04-25T20:02:35.974Z,99947.66
2019-04-25T20:07:43.797Z,99954.13
2019-04-25T20:12:51.538Z,99954.80
2019-04-25T20:17:54.247Z,99968.50
2019-04-25T20:22:57.720Z,99987.30
2019-04-25T20:28:01.163Z,99994.13
2019-04-25T20:33:04.559Z,99999.92
2019-04-25T20:38:08.094Z,100003.95
2019-04-25T20:43:11.585Z,100005.41
2019-04-25T20:48:14.996Z,100012.70
2019-04-25T20:53:18.423Z,100025.77
2019-04-25T20:58:21.823Z,100032.58
2019-04-25T21:03:25.241Z,100048.69
2019-04-25T21:08:28.934Z,100048.52
2019-04-25T21:13:34.056Z,100041.85
2019-04-25T21:18:49.495Z,100050.34
2019-04-25T21:23:53.092Z,100051.02
2019-04-25T21:28:56.557Z,100051.87
2019-04-25T21:34:00.234Z,100054.42
2019-04-25T21:39:07.037Z,100055.66
2019-04-25T21:44:11.290Z,100058.38
2019-04-25T21:49:14.857Z,100064.11
2019-04-25T21:54:18.684Z,100071.67
2019-04-25T21:59:22.415Z,100078.40
2019-04-25T22:04:37.973Z,100069.45
2019-04-25T22:09:31.165Z,100072.69
2019-04-25T22:14:35.242Z,100071.13
2019-04-25T22:19:38.913Z,100081.25
2019-04-25T22:24:42.595Z,100085.11
2019-04-25T22:29:48.032Z,100089.40
2019-04-25T22:35:10.652Z,100094.06
2019-04-25T22:40:14.398Z,100100.60
2019-04-25T22:45:19.125Z,100091.27
2019-04-25T22:50:22.520Z,100102.97
2019-04-25T22:55:25.954Z,100094.50
2019-04-25T23:00:31.097Z,100089.55
2019-04-25T23:05:45.141Z,100091.72
2019-04-25T23:10:48.828Z,100107.65
2019-04-25T23:15:52.348Z,100122.07
2019-04-25T23:20:56.093Z,100124.08
2019-04-25T23:26:07.898Z,100129.89
2019-04-25T23:31:13.177Z,100116.30
2019-04-25T23:36:16.588Z,100108.95
2019-04-25T23:41:19.995Z,100120.27
2019-04-25T23:46:23.405Z,100108.56
2019-04-25T23:51:27.535Z,100093.44
2019-04-25T23:56:31.331Z,100127.38
